createdAt,value
2022-11-23T00:01:18.668Z,12.05
2022-11-23T00:03:48.553Z,13.45
2022-11-23T00:06:16.322Z,13.60
2022-11-23T00:08:44.648Z,9.27
2022-11-23T00:11:11.955Z,14.20
2022-11-23T00:13:42.425Z,14.23
2022-11-23T00:16:13.259Z,13.57
2022-11-23T00:18:40.210Z,13.25
2022-11-23T00:21:18.326Z,13.35
2022-11-23T00:23:46.283Z,14.90
2022-11-23T00:26:14.249Z,16.10
2022-11-23T00:28:42.374Z,13.23
2022-11-23T00:31:14.882Z,14.57
2022-11-23T00:33:44.604Z,16.42
2022-11-23T00:36:13.954Z,15.53
2022-11-23T00:38:44.861Z,16.25
2022-11-23T00:41:14.532Z,15.60
2022-11-23T00:43:41.910Z,15.18
2022-11-23T00:46:24.980Z,12.90
2022-11-23T00:51:31.364Z,21.88
2022-11-23T00:57:00.330Z,17.60
2022-11-23T00:59:36.134Z,18.27
2022-11-23T01:02:03.052Z,18.67
2022-11-23T01:04:30.425Z,17.92
2022-11-23T01:06:57.852Z,19.05
2022-11-23T01:09:26.920Z,20.20
2022-11-23T01:11:54.652Z,17.77
2022-11-23T01:14:22.514Z,17.87
2022-11-23T01:16:54.729Z,16.70
2022-11-23T01:19:22.094Z,17.33
2022-11-23T01:21:49.122Z,18.00
2022-11-23T01:30:58.575Z,23.27
2022-11-23T01:33:35.331Z,19.15
2022-11-23T01:36:27.447Z,19.15
2022-11-23T01:39:03.071Z,16.27
2022-11-23T01:41:39.292Z,20.77
2022-11-23T01:44:37.796Z,22.60
2022-11-23T01:47:15.184Z,23.38
2022-11-23T01:49:57.702Z,18.70
2022-11-23T01:52:30.505Z,22.23
2022-11-23T01:55:08.425Z,17.83
2022-11-23T01:57:45.898Z,16.23
2022-11-23T02:00:28.147Z,16.90
2022-11-23T02:03:05.920Z,15.45
2022-11-23T02:05:39.248Z,16.75
2022-11-23T02:08:07.627Z,12.50
2022-11-23T02:10:35.456Z,16.50
2022-11-23T02:13:08.070Z,17.92
2022-11-23T02:15:38.400Z,12.80
2022-11-23T02:18:10.540Z,13.73
2022-11-23T02:20:37.619Z,15.50
2022-11-23T02:23:04.718Z,12.63
2022-11-23T02:25:43.631Z,11.25
2022-11-23T02:28:24.664Z,12.85
2022-11-23T02:30:54.691Z,12.82
2022-11-23T02:33:21.931Z,12.33
2022-11-23T02:35:55.073Z,16.02
2022-11-23T02:38:23.487Z,10.35
2022-11-23T02:40:50.714Z,13.30
2022-11-23T02:43:17.812Z,9.25
2022-11-23T02:45:53.171Z,11.20
2022-11-23T02:48:20.075Z,11.20
2022-11-23T02:50:47.206Z,9.57
2022-11-23T02:53:14.785Z,12.50
2022-11-23T02:55:41.620Z,14.20
2022-11-23T02:58:08.492Z,14.37
2022-11-23T03:00:36.037Z,13.07
2022-11-23T03:03:03.864Z,10.90
2022-11-23T03:05:30.910Z,11.45
2022-11-23T03:07:57.851Z,13.00
2022-11-23T03:10:27.791Z,15.07
2022-11-23T03:12:56.716Z,9.13
2022-11-23T03:15:24.722Z,12.45
2022-11-23T03:17:51.936Z,11.23
2022-11-23T03:20:18.925Z,13.57
2022-11-23T03:22:46.433Z,10.90
2022-11-23T03:25:13.715Z,10.50
2022-11-23T03:27:40.450Z,10.32
2022-11-23T03:30:09.342Z,14.07
2022-11-23T03:32:36.895Z,8.25
2022-11-23T03:35:05.198Z,12.70
2022-11-23T03:37:32.077Z,9.07
2022-11-23T03:39:58.902Z,13.02
2022-11-23T03:42:25.754Z,7.22
2022-11-23T03:44:52.487Z,10.82
2022-11-23T03:47:19.283Z,8.00
2022-11-23T03:49:46.108Z,11.05
2022-11-23T03:52:13.153Z,10.15
2022-11-23T03:54:40.028Z,6.78
2022-11-23T03:57:06.761Z,7.97
2022-11-23T03:59:33.926Z,8.30
2022-11-23T04:02:01.026Z,9.80
2022-11-23T04:04:27.784Z,7.30
2022-11-23T04:06:54.742Z,7.93
2022-11-23T04:09:21.610Z,6.95
2022-11-23T04:11:48.405Z,7.97
2022-11-23T04:14:15.255Z,5.47
2022-11-23T04:16:42.144Z,7.25
2022-11-23T04:19:09.191Z,9.65
2022-11-23T04:21:36.019Z,9.13
2022-11-23T04:24:03.070Z,8.03
2022-11-23T04:26:29.914Z,5.90
2022-11-23T04:28:56.690Z,6.68
2022-11-23T04:31:23.490Z,10.57
2022-11-23T04:33:50.337Z,5.57
2022-11-23T04:36:17.228Z,9.63
2022-11-23T04:38:44.077Z,5.75
2022-11-23T04:41:11.232Z,8.43
2022-11-23T04:43:41.141Z,9.70
2022-11-23T04:46:08.038Z,12.68
2022-11-23T04:48:34.783Z,9.07
2022-11-23T04:51:01.692Z,6.93
2022-11-23T04:53:28.721Z,10.02
2022-11-23T04:55:55.676Z,7.82
2022-11-23T04:58:22.715Z,10.40
2022-11-23T05:00:49.551Z,9.70
2022-11-23T05:03:16.718Z,9.95
2022-11-23T05:05:43.731Z,9.55
2022-11-23T05:08:10.947Z,7.25
2022-11-23T05:10:38.191Z,10.95
2022-11-23T05:13:05.160Z,8.87
2022-11-23T05:15:32.042Z,8.57
2022-11-23T05:18:07.144Z,6.40
2022-11-23T05:20:37.555Z,8.25
2022-11-23T05:23:05.105Z,10.15
2022-11-23T05:25:31.964Z,8.67
2022-11-23T05:28:03.663Z,11.30
2022-11-23T05:30:38.825Z,5.85
2022-11-23T05:33:05.734Z,10.68
2022-11-23T05:35:41.876Z,7.10
2022-11-23T05:38:08.915Z,7.40
2022-11-23T05:40:36.922Z,7.32
2022-11-23T05:43:04.274Z,11.10
2022-11-23T05:45:31.331Z,9.05
2022-11-23T05:47:59.942Z,8.20
2022-11-23T05:50:27.972Z,10.80
2022-11-23T05:52:57.603Z,7.50
2022-11-23T05:55:25.549Z,10.00
2022-11-23T05:57:52.851Z,10.13
2022-11-23T06:00:20.148Z,10.02
2022-11-23T06:02:49.165Z,5.17
2022-11-23T06:05:16.496Z,6.32
2022-11-23T06:07:43.405Z,10.48
2022-11-23T06:10:11.941Z,13.48
2022-11-23T06:12:38.797Z,8.48
2022-11-23T06:15:06.334Z,5.73
2022-11-23T06:17:33.206Z,8.00
2022-11-23T06:20:00.059Z,8.90
2022-11-23T06:22:26.938Z,7.82
2022-11-23T06:24:53.941Z,6.93
2022-11-23T06:27:20.887Z,6.97
2022-11-23T06:29:47.620Z,7.18
2022-11-23T06:32:15.597Z,7.40
2022-11-23T06:34:42.622Z,9.30
2022-11-23T06:37:09.422Z,8.32
2022-11-23T06:39:36.347Z,7.27
2022-11-23T06:42:30.901Z,7.00
2022-11-23T06:44:50.808Z,6.22
2022-11-23T06:47:20.819Z,8.68
2022-11-23T06:49:51.376Z,8.63
2022-11-23T06:52:18.133Z,5.93
2022-11-23T06:54:45.059Z,6.40
2022-11-23T06:57:12.225Z,7.18
2022-11-23T06:59:44.301Z,8.77
2022-11-23T07:02:12.886Z,6.43
2022-11-23T07:04:39.681Z,10.00
2022-11-23T07:07:09.796Z,4.93
2022-11-23T07:09:36.907Z,6.35
2022-11-23T07:12:03.983Z,6.20
2022-11-23T07:14:30.854Z,4.85
2022-11-23T07:16:57.708Z,7.83
2022-11-23T07:19:24.628Z,5.18
2022-11-23T07:21:51.586Z,11.52
2022-11-23T07:24:18.445Z,6.15
2022-11-23T07:26:45.436Z,7.80
2022-11-23T07:29:12.339Z,9.93
2022-11-23T07:31:39.353Z,8.20
2022-11-23T07:34:06.215Z,5.22
2022-11-23T07:36:33.498Z,5.05
2022-11-23T07:39:00.467Z,4.57
2022-11-23T07:41:27.746Z,9.70
2022-11-23T07:43:55.235Z,12.57
2022-11-23T07:46:22.422Z,6.55
2022-11-23T07:48:49.719Z,8.82
2022-11-23T07:51:16.981Z,6.05
2022-11-23T07:53:43.901Z,7.77
2022-11-23T07:56:10.685Z,7.07
2022-11-23T07:58:37.561Z,6.95
2022-11-23T08:01:04.453Z,10.77
2022-11-23T08:03:31.498Z,6.60
2022-11-23T08:05:58.503Z,7.20
2022-11-23T08:08:25.343Z,8.18
2022-11-23T08:10:54.135Z,8.90
2022-11-23T08:13:22.609Z,4.22
2022-11-23T08:15:55.805Z,12.10
2022-11-23T08:18:24.691Z,9.37
2022-11-23T08:20:51.751Z,9.75
2022-11-23T08:23:18.924Z,6.97
2022-11-23T08:25:46.219Z,6.78
2022-11-23T08:28:13.480Z,8.63
2022-11-23T08:30:40.320Z,7.03
2022-11-23T08:33:12.483Z,6.85
2022-11-23T08:35:41.823Z,7.93
2022-11-23T08:38:10.393Z,12.30
2022-11-23T08:40:41.023Z,5.93
2022-11-23T08:43:08.242Z,5.73
2022-11-23T08:45:35.323Z,11.93
2022-11-23T08:48:04.583Z,11.48
2022-11-23T08:50:34.705Z,7.88
2022-11-23T08:53:01.606Z,9.43
2022-11-23T08:55:29.563Z,9.40
2022-11-23T08:58:00.072Z,10.00
2022-11-23T09:00:27.893Z,8.05
2022-11-23T09:02:55.667Z,8.43
2022-11-23T09:05:22.491Z,6.47
2022-11-23T09:07:49.573Z,9.67
2022-11-23T09:10:18.979Z,11.30
2022-11-23T09:12:47.881Z,9.95
2022-11-23T09:15:15.402Z,10.80
2022-11-23T09:17:42.524Z,5.30
2022-11-23T09:20:10.584Z,5.30
2022-11-23T09:22:40.341Z,5.55
2022-11-23T09:25:07.987Z,9.35
2022-11-23T09:27:35.212Z,9.07
2022-11-23T09:30:05.906Z,7.22
2022-11-23T09:32:33.365Z,9.33
2022-11-23T09:35:00.455Z,9.05
2022-11-23T09:37:29.195Z,7.43
2022-11-23T09:39:56.105Z,8.07
2022-11-23T09:42:54.185Z,7.18
2022-11-23T09:45:23.520Z,7.33
2022-11-23T09:48:15.539Z,5.85
2022-11-23T09:51:18.945Z,7.70
2022-11-23T09:53:54.584Z,10.32
2022-11-23T09:56:34.335Z,10.23
2022-11-23T09:59:12.707Z,10.30
2022-11-23T10:01:39.837Z,7.53
2022-11-23T10:04:07.647Z,6.50
2022-11-23T10:06:39.361Z,6.05
2022-11-23T10:09:25.015Z,9.45
2022-11-23T10:12:45.623Z,7.10
2022-11-23T10:15:16.170Z,8.73
2022-11-23T10:17:45.916Z,6.35
2022-11-23T10:20:37.927Z,6.63
2022-11-23T10:23:17.548Z,12.48
2022-11-23T10:25:52.075Z,12.70
2022-11-23T10:28:21.983Z,5.20
2022-11-23T10:30:55.566Z,8.43
2022-11-23T10:33:33.364Z,8.05
2022-11-23T10:36:00.303Z,6.97
2022-11-23T10:38:28.440Z,7.07
2022-11-23T10:41:09.190Z,5.95
2022-11-23T10:44:03.932Z,13.13
2022-11-23T10:46:37.395Z,7.50
2022-11-23T10:49:29.851Z,4.22
2022-11-23T10:52:03.763Z,7.90
2022-11-23T10:54:54.197Z,4.38
2022-11-23T10:57:33.832Z,11.15
2022-11-23T11:00:25.835Z,7.68
2022-11-23T11:02:57.655Z,8.70
2022-11-23T11:08:25.019Z,6.47
2022-11-23T11:11:01.949Z,14.50
2022-11-23T11:13:36.252Z,12.75
2022-11-23T11:16:19.317Z,7.30
2022-11-23T11:18:46.409Z,9.97
2022-11-23T11:21:22.413Z,5.60
2022-11-23T11:24:25.083Z,7.00
2022-11-23T11:27:03.828Z,7.38
2022-11-23T11:29:40.084Z,5.57
2022-11-23T11:32:46.250Z,7.57
2022-11-23T11:35:26.236Z,7.30
2022-11-23T11:37:58.188Z,6.07
2022-11-23T11:40:33.954Z,3.58
2022-11-23T11:43:32.355Z,4.60
2022-11-23T11:46:29.034Z,5.23
2022-11-23T11:49:15.989Z,5.03
2022-11-23T11:51:48.285Z,6.97
2022-11-23T11:54:23.427Z,5.35
2022-11-23T11:57:00.329Z,6.90
2022-11-23T11:59:44.631Z,5.43
2022-11-23T12:02:28.955Z,6.55
2022-11-23T12:05:11.717Z,4.10
2022-11-23T12:07:59.844Z,6.18
2022-11-23T12:10:52.917Z,3.70
2022-11-23T12:13:28.963Z,2.60
2022-11-23T12:16:26.765Z,4.13
2022-11-23T12:19:18.143Z,4.65
2022-11-23T12:22:26.728Z,3.72
2022-11-23T12:25:11.936Z,7.00
2022-11-23T12:28:16.994Z,3.10
2022-11-23T12:31:21.452Z,5.90
2022-11-23T12:34:25.577Z,6.53
2022-11-23T12:37:10.322Z,5.93
2022-11-23T12:40:04.385Z,8.05
2022-11-23T12:42:39.230Z,5.57
2022-11-23T12:45:43.482Z,4.55
2022-11-23T12:48:35.612Z,4.70
2022-11-23T12:51:28.800Z,4.15
2022-11-23T12:54:14.076Z,5.07
2022-11-23T12:57:18.475Z,5.37
2022-11-23T13:00:05.861Z,4.25
2022-11-23T13:02:44.841Z,6.85
2022-11-23T13:05:24.792Z,8.10
2022-11-23T13:08:18.668Z,7.53
2022-11-23T13:11:05.112Z,9.93
2022-11-23T13:14:13.830Z,8.05
2022-11-23T13:16:46.672Z,4.93
2022-11-23T13:19:31.156Z,7.53
2022-11-23T13:21:58.818Z,3.60
2022-11-23T13:24:33.062Z,3.67
2022-11-23T13:27:15.238Z,7.95
2022-11-23T13:29:51.064Z,3.95
2022-11-23T13:32:39.433Z,2.55
2022-11-23T13:35:21.571Z,8.55
2022-11-23T13:37:57.592Z,5.60
2022-11-23T13:40:27.180Z,3.45
2022-11-23T13:42:58.186Z,3.08
2022-11-23T13:45:29.958Z,5.68
2022-11-23T13:48:09.125Z,5.88
2022-11-23T13:50:39.055Z,2.40
2022-11-23T13:53:38.214Z,5.05
2022-11-23T13:56:31.044Z,3.17
2022-11-23T13:59:18.157Z,4.25
2022-11-23T14:02:00.500Z,6.63
2022-11-23T14:04:33.236Z,3.50
2022-11-23T14:07:30.017Z,2.33
2022-11-23T14:16:01.739Z,4.65
2022-11-23T14:18:52.219Z,2.60
2022-11-23T14:22:03.480Z,8.85
2022-11-23T14:24:52.695Z,2.38
2022-11-23T14:27:48.129Z,1.55
2022-11-23T14:30:35.969Z,5.45
2022-11-23T14:33:38.047Z,4.07
2022-11-23T14:36:32.165Z,2.92
2022-11-23T14:42:29.258Z,3.97
2022-11-23T14:47:45.857Z,4.87
2022-11-23T14:50:29.877Z,4.45
2022-11-23T14:53:12.482Z,4.28
2022-11-23T14:56:07.896Z,3.03
2022-11-23T14:58:34.972Z,3.83
2022-11-23T15:01:03.201Z,3.70
2022-11-23T15:03:52.373Z,5.03
2022-11-23T15:06:25.692Z,2.45
2022-11-23T15:09:02.137Z,2.08
2022-11-23T15:11:33.189Z,3.03
2022-11-23T15:14:28.939Z,3.67
2022-11-23T15:16:56.037Z,1.60
2022-11-23T15:19:30.056Z,2.63
2022-11-23T15:21:57.837Z,5.22
2022-11-23T15:24:28.112Z,6.10
2022-11-23T15:27:10.803Z,2.80
2022-11-23T15:29:40.134Z,5.28
2022-11-23T15:32:33.716Z,3.67
2022-11-23T15:35:17.827Z,6.40
2022-11-23T15:37:47.631Z,2.20
2022-11-23T15:40:19.799Z,4.30
2022-11-23T15:42:52.007Z,6.47
2022-11-23T15:45:36.138Z,4.90
2022-11-23T15:48:35.654Z,4.90
2022-11-23T15:51:09.025Z,6.07
2022-11-23T15:53:52.249Z,2.20
2022-11-23T15:56:56.601Z,7.28
2022-11-23T15:59:33.153Z,3.13
2022-11-23T16:02:07.113Z,2.25
2022-11-23T16:04:41.597Z,3.60
2022-11-23T16:07:23.570Z,4.23
2022-11-23T16:10:26.730Z,2.28
2022-11-23T16:12:58.915Z,2.30
2022-11-23T16:15:46.559Z,2.13
2022-11-23T16:18:13.816Z,1.85
2022-11-23T16:20:51.087Z,3.00
2022-11-23T16:26:19.712Z,4.03
2022-11-23T16:28:58.038Z,3.35
2022-11-23T16:31:31.094Z,2.72
2022-11-23T16:34:10.237Z,4.93
2022-11-23T16:36:41.916Z,4.50
2022-11-23T16:39:09.265Z,6.50
2022-11-23T16:41:46.011Z,2.63
2022-11-23T16:44:12.977Z,4.28
2022-11-23T16:46:51.224Z,4.77
2022-11-23T16:49:24.325Z,2.45
2022-11-23T16:51:57.075Z,4.28
2022-11-23T16:57:56.315Z,3.97
2022-11-23T17:00:24.462Z,5.40
2022-11-23T17:02:51.695Z,4.40
2022-11-23T17:05:21.249Z,5.43
2022-11-23T17:07:48.399Z,5.78
2022-11-23T17:10:15.749Z,3.83
2022-11-23T17:12:55.153Z,5.87
2022-11-23T17:15:24.297Z,3.03
2022-11-23T17:17:55.465Z,5.97
2022-11-23T17:20:22.876Z,5.30
2022-11-23T17:22:54.405Z,4.57
2022-11-23T17:25:22.901Z,4.87
2022-11-23T17:27:55.179Z,5.00
2022-11-23T17:30:22.787Z,6.93
2022-11-23T17:32:50.472Z,4.47
2022-11-23T17:35:17.545Z,3.97
2022-11-23T17:37:45.436Z,5.10
2022-11-23T17:40:17.195Z,3.35
2022-11-23T17:42:44.815Z,7.50
2022-11-23T17:45:12.279Z,4.53
2022-11-23T17:47:41.425Z,4.57
2022-11-23T17:50:14.302Z,5.70
2022-11-23T17:52:44.505Z,7.55
2022-11-23T17:55:12.994Z,5.03
2022-11-23T17:57:40.645Z,5.90
2022-11-23T18:00:18.029Z,6.18
2022-11-23T18:02:45.277Z,6.37
2022-11-23T18:05:16.494Z,5.55
2022-11-23T18:07:46.631Z,6.13
2022-11-23T18:10:16.340Z,4.65
2022-11-23T18:12:44.791Z,9.15
2022-11-23T18:15:12.027Z,8.57
2022-11-23T18:17:39.050Z,6.35
2022-11-23T18:20:08.448Z,5.90
2022-11-23T18:22:35.978Z,8.13
2022-11-23T18:25:03.238Z,9.38
2022-11-23T18:27:30.225Z,8.50
2022-11-23T18:29:57.388Z,6.35
2022-11-23T18:32:24.419Z,6.90
2022-11-23T18:34:51.208Z,8.05
2022-11-23T18:37:18.052Z,11.90
2022-11-23T18:39:44.904Z,6.30
2022-11-23T18:42:11.840Z,5.45
2022-11-23T18:44:38.779Z,7.82
2022-11-23T18:47:05.878Z,8.23
2022-11-23T18:49:33.188Z,7.15
2022-11-23T18:52:00.359Z,7.50
2022-11-23T18:54:27.440Z,9.48
2022-11-23T18:56:57.863Z,6.65
2022-11-23T18:59:50.408Z,7.28
2022-11-23T19:02:25.257Z,9.57
2022-11-23T19:04:54.716Z,6.87
2022-11-23T19:07:27.057Z,10.75
2022-11-23T19:09:54.799Z,10.82
2022-11-23T19:12:21.744Z,8.57
2022-11-23T19:14:50.144Z,9.38
2022-11-23T19:17:20.143Z,9.70
2022-11-23T19:19:50.286Z,8.05
2022-11-23T19:22:17.306Z,7.43
2022-11-23T19:24:44.230Z,8.27
2022-11-23T19:29:59.051Z,7.73
2022-11-23T19:32:26.392Z,7.45
2022-11-23T19:34:57.693Z,9.40
2022-11-23T19:37:24.889Z,12.55
2022-11-23T19:39:51.794Z,5.93
2022-11-23T19:42:21.378Z,7.37
2022-11-23T19:44:48.281Z,8.98
2022-11-23T19:47:21.321Z,5.38
2022-11-23T19:49:49.666Z,10.23
2022-11-23T19:52:16.840Z,4.78
2022-11-23T19:54:43.785Z,5.57
2022-11-23T19:57:10.920Z,5.57
2022-11-23T19:59:37.745Z,5.25
2022-11-23T20:02:04.837Z,5.90
2022-11-23T20:04:32.027Z,6.43
2022-11-23T20:06:59.085Z,7.57
2022-11-23T20:09:27.959Z,8.10
2022-11-23T20:11:54.909Z,6.75
2022-11-23T20:14:22.064Z,12.48
2022-11-23T20:16:49.125Z,5.65
2022-11-23T20:19:16.047Z,6.67
2022-11-23T20:21:43.053Z,6.63
2022-11-23T20:24:14.724Z,11.20
2022-11-23T20:26:43.005Z,11.32
2022-11-23T20:29:10.943Z,9.27
2022-11-23T20:31:38.812Z,6.27
2022-11-23T20:34:07.713Z,7.88
2022-11-23T20:36:38.621Z,8.60
2022-11-23T20:39:08.264Z,6.18
2022-11-23T20:41:37.823Z,5.95
2022-11-23T20:44:07.831Z,9.37
2022-11-23T20:49:30.594Z,9.55
2022-11-23T20:51:57.847Z,11.40
2022-11-23T20:54:25.040Z,11.60
2022-11-23T20:56:54.916Z,7.43
2022-11-23T20:59:24.106Z,9.45
2022-11-23T21:01:54.856Z,5.65
2022-11-23T21:04:22.347Z,10.57
2022-11-23T21:06:49.446Z,11.88
2022-11-23T21:09:17.249Z,19.43
2022-11-23T21:12:03.186Z,6.20
2022-11-23T21:14:33.098Z,11.93
2022-11-23T21:17:01.414Z,7.65
2022-11-23T21:19:37.088Z,9.88
2022-11-23T21:22:06.953Z,13.90
2022-11-23T21:24:35.679Z,8.80
2022-11-23T21:27:04.349Z,9.55
2022-11-23T21:29:32.005Z,11.00
2022-11-23T21:31:58.881Z,13.52
2022-11-23T21:34:32.462Z,10.53
2022-11-23T21:36:59.739Z,9.32
2022-11-23T21:39:27.025Z,8.15
2022-11-23T21:41:54.833Z,10.57
2022-11-23T21:44:27.421Z,7.72
2022-11-23T21:47:04.376Z,6.50
2022-11-23T21:49:31.454Z,14.45
2022-11-23T21:51:58.331Z,14.15
2022-11-23T21:54:25.232Z,13.32
2022-11-23T21:56:54.904Z,11.85
2022-11-23T21:59:29.865Z,13.30
2022-11-23T22:02:04.260Z,12.75
2022-11-23T22:04:33.430Z,11.85
2022-11-23T22:07:00.613Z,6.03
2022-11-23T22:09:34.709Z,13.82
2022-11-23T22:12:11.585Z,11.47
2022-11-23T22:14:38.598Z,11.05
2022-11-23T22:17:06.155Z,10.95
2022-11-23T22:19:34.641Z,12.57
2022-11-23T22:22:27.186Z,19.75
2022-11-23T22:25:00.541Z,15.57
2022-11-23T22:27:39.848Z,12.73
2022-11-23T22:32:54.463Z,10.68
2022-11-23T22:35:27.821Z,10.93
2022-11-23T22:38:17.213Z,14.17
2022-11-23T22:40:47.568Z,11.27
2022-11-23T22:43:15.761Z,14.60
2022-11-23T22:45:42.887Z,17.00
2022-11-23T22:51:05.220Z,14.80
2022-11-23T22:53:32.843Z,10.68
2022-11-23T22:56:04.955Z,12.80
2022-11-23T22:58:32.953Z,11.05
2022-11-23T23:01:25.054Z,7.40
2022-11-23T23:03:56.623Z,15.60
2022-11-23T23:06:26.667Z,14.43
2022-11-23T23:09:00.741Z,21.48
2022-11-23T23:11:30.564Z,11.73
2022-11-23T23:13:58.241Z,7.47
2022-11-23T23:16:26.378Z,9.37
2022-11-23T23:18:57.293Z,15.48
2022-11-23T23:21:25.749Z,9.98
2022-11-23T23:23:54.873Z,13.70
2022-11-23T23:26:24.634Z,13.70
2022-11-23T23:28:56.649Z,9.17
2022-11-23T23:31:24.215Z,15.13
2022-11-23T23:33:51.462Z,14.02
2022-11-23T23:36:21.113Z,14.90
2022-11-23T23:38:48.474Z,16.13
2022-11-23T23:41:15.728Z,11.10
2022-11-23T23:43:44.058Z,12.32
2022-11-23T23:46:13.823Z,11.48
2022-11-23T23:48:42.030Z,14.75
2022-11-23T23:51:11.621Z,10.85
2022-11-23T23:53:39.664Z,14.40
2022-11-23T23:56:12.363Z,18.55
2022-11-23T23:58:39.341Z,17.45
